sensor_id;sensor_type;location;lat;lon;timestamp;temperature;humidity
48728;DHT22;34527;45.618;5.130;2022-10-18T00:01:36;18.40;99.90
48728;DHT22;34527;45.618;5.130;2022-10-18T00:04:01;18.30;99.90
48728;DHT22;34527;45.618;5.130;2022-10-18T00:06:27;18.30;99.90
48728;DHT22;34527;45.618;5.130;2022-10-18T00:08:53;18.30;99.90
48728;DHT22;34527;45.618;5.130;2022-10-18T00:11:19;18.30;99.90
48728;DHT22;34527;45.618;5.130;2022-10-18T00:13:45;18.20;99.90
48728;DHT22;34527;45.618;5.130;2022-10-18T00:16:13;18.10;99.90
48728;DHT22;34527;45.618;5.130;2022-10-18T00:18:40;18.20;99.90
48728;DHT22;34527;45.618;5.130;2022-10-18T00:21:09;18.10;99.90
48728;DHT22;34527;45.618;5.130;2022-10-18T00:23:35;18.10;99.90
48728;DHT22;34527;45.618;5.130;2022-10-18T00:26:16;18.10;99.90
48728;DHT22;34527;45.618;5.130;2022-10-18T00:28:43;18.10;99.90
48728;DHT22;34527;45.618;5.130;2022-10-18T00:31:13;18.20;99.90
48728;DHT22;34527;45.618;5.130;2022-10-18T00:33:40;18.10;99.90
48728;DHT22;34527;45.618;5.130;2022-10-18T00:36:06;18.10;99.90
48728;DHT22;34527;45.618;5.130;2022-10-18T00:38:32;18.00;99.90
48728;DHT22;34527;45.618;5.130;2022-10-18T00:40:58;18.00;99.90
48728;DHT22;34527;45.618;5.130;2022-10-18T00:43:24;18.10;99.90
48728;DHT22;34527;45.618;5.130;2022-10-18T00:45:50;18.00;99.90
48728;DHT22;34527;45.618;5.130;2022-10-18T00:48:17;17.90;99.90
48728;DHT22;34527;45.618;5.130;2022-10-18T00:50:43;17.90;99.90
48728;DHT22;34527;45.618;5.130;2022-10-18T00:53:16;17.80;99.90
48728;DHT22;34527;45.618;5.130;2022-10-18T00:55:43;17.80;99.90
48728;DHT22;34527;45.618;5.130;2022-10-18T00:58:11;17.70;99.90
48728;DHT22;34527;45.618;5.130;2022-10-18T01:00:37;17.60;99.90
48728;DHT22;34527;45.618;5.130;2022-10-18T01:03:05;17.60;99.90
48728;DHT22;34527;45.618;5.130;2022-10-18T01:05:31;17.50;99.90
48728;DHT22;34527;45.618;5.130;2022-10-18T01:08:28;17.40;99.90
48728;DHT22;34527;45.618;5.130;2022-10-18T01:16:51;17.50;99.90
48728;DHT22;34527;45.618;5.130;2022-10-18T01:19:52;17.70;99.90
48728;DHT22;34527;45.618;5.130;2022-10-18T01:22:37;17.60;99.90
48728;DHT22;34527;45.618;5.130;2022-10-18T01:25:27;17.70;99.90
48728;DHT22;34527;45.618;5.130;2022-10-18T01:36:02;17.40;99.90
48728;DHT22;34527;45.618;5.130;2022-10-18T01:38:31;17.40;99.90
48728;DHT22;34527;45.618;5.130;2022-10-18T01:41:00;17.30;99.90
48728;DHT22;34527;45.618;5.130;2022-10-18T01:43:27;17.20;99.90
48728;DHT22;34527;45.618;5.130;2022-10-18T01:45:55;17.20;99.90
48728;DHT22;34527;45.618;5.130;2022-10-18T01:48:22;17.30;99.90
48728;DHT22;34527;45.618;5.130;2022-10-18T01:50:48;17.20;99.90
48728;DHT22;34527;45.618;5.130;2022-10-18T01:53:24;17.10;99.90
48728;DHT22;34527;45.618;5.130;2022-10-18T01:56:08;17.10;99.90
48728;DHT22;34527;45.618;5.130;2022-10-18T01:58:47;17.00;99.90
48728;DHT22;34527;45.618;5.130;2022-10-18T02:01:54;16.90;99.90
48728;DHT22;34527;45.618;5.130;2022-10-18T02:07:06;16.90;99.90
48728;DHT22;34527;45.618;5.130;2022-10-18T02:10:19;17.00;99.90
48728;DHT22;34527;45.618;5.130;2022-10-18T02:12:39;17.00;99.90
48728;DHT22;34527;45.618;5.130;2022-10-18T02:15:07;17.20;99.90
48728;DHT22;34527;45.618;5.130;2022-10-18T02:17:34;17.20;99.90
48728;DHT22;34527;45.618;5.130;2022-10-18T02:20:02;17.20;99.90
48728;DHT22;34527;45.618;5.130;2022-10-18T02:22:31;17.20;99.90
48728;DHT22;34527;45.618;5.130;2022-10-18T02:25:00;17.10;99.90
48728;DHT22;34527;45.618;5.130;2022-10-18T02:27:27;17.10;99.90
48728;DHT22;34527;45.618;5.130;2022-10-18T02:29:53;17.10;99.90
48728;DHT22;34527;45.618;5.130;2022-10-18T02:32:33;17.00;99.90
48728;DHT22;34527;45.618;5.130;2022-10-18T02:35:30;17.10;99.90
48728;DHT22;34527;45.618;5.130;2022-10-18T02:37:57;17.10;99.90
48728;DHT22;34527;45.618;5.130;2022-10-18T02:40:24;17.30;99.90
48728;DHT22;34527;45.618;5.130;2022-10-18T02:42:56;17.30;99.90
48728;DHT22;34527;45.618;5.130;2022-10-18T02:45:23;17.30;99.90
48728;DHT22;34527;45.618;5.130;2022-10-18T02:47:50;17.30;99.90
48728;DHT22;34527;45.618;5.130;2022-10-18T02:50:16;17.20;99.90
48728;DHT22;34527;45.618;5.130;2022-10-18T02:52:42;17.20;99.90
48728;DHT22;34527;45.618;5.130;2022-10-18T02:55:09;17.20;99.90
48728;DHT22;34527;45.618;5.130;2022-10-18T02:57:35;17.20;99.90
48728;DHT22;34527;45.618;5.130;2022-10-18T03:00:03;17.10;99.90
48728;DHT22;34527;45.618;5.130;2022-10-18T03:02:29;17.20;99.90
48728;DHT22;34527;45.618;5.130;2022-10-18T03:04:55;17.20;99.90
48728;DHT22;34527;45.618;5.130;2022-10-18T03:07:21;17.20;99.90
48728;DHT22;34527;45.618;5.130;2022-10-18T03:09:47;17.20;99.90
48728;DHT22;34527;45.618;5.130;2022-10-18T03:12:13;17.10;99.90
48728;DHT22;34527;45.618;5.130;2022-10-18T03:14:39;17.00;99.90
48728;DHT22;34527;45.618;5.130;2022-10-18T03:17:05;17.00;99.90
48728;DHT22;34527;45.618;5.130;2022-10-18T03:19:30;16.90;99.90
48728;DHT22;34527;45.618;5.130;2022-10-18T03:21:56;16.90;99.90
48728;DHT22;34527;45.618;5.130;2022-10-18T03:24:22;16.90;99.90
48728;DHT22;34527;45.618;5.130;2022-10-18T03:26:48;16.80;99.90
48728;DHT22;34527;45.618;5.130;2022-10-18T03:29:14;16.80;99.90
48728;DHT22;34527;45.618;5.130;2022-10-18T03:31:40;16.70;99.90
48728;DHT22;34527;45.618;5.130;2022-10-18T03:34:05;16.70;99.90
48728;DHT22;34527;45.618;5.130;2022-10-18T03:36:31;16.80;99.90
48728;DHT22;34527;45.618;5.130;2022-10-18T03:38:58;16.70;99.90
48728;DHT22;34527;45.618;5.130;2022-10-18T03:41:24;16.70;99.90
48728;DHT22;34527;45.618;5.130;2022-10-18T03:43:50;16.80;99.90
48728;DHT22;34527;45.618;5.130;2022-10-18T03:46:16;16.80;99.90
48728;DHT22;34527;45.618;5.130;2022-10-18T03:48:42;16.80;99.90
48728;DHT22;34527;45.618;5.130;2022-10-18T03:51:07;16.80;99.90
48728;DHT22;34527;45.618;5.130;2022-10-18T03:53:33;16.80;99.90
48728;DHT22;34527;45.618;5.130;2022-10-18T03:55:59;16.70;99.90
48728;DHT22;34527;45.618;5.130;2022-10-18T03:58:25;16.70;99.90
48728;DHT22;34527;45.618;5.130;2022-10-18T04:00:52;16.70;99.90
48728;DHT22;34527;45.618;5.130;2022-10-18T04:03:19;16.70;99.90
48728;DHT22;34527;45.618;5.130;2022-10-18T04:05:46;16.60;99.90
48728;DHT22;34527;45.618;5.130;2022-10-18T04:08:12;16.60;99.90
48728;DHT22;34527;45.618;5.130;2022-10-18T04:10:38;16.40;99.90
48728;DHT22;34527;45.618;5.130;2022-10-18T04:13:05;16.50;99.90
48728;DHT22;34527;45.618;5.130;2022-10-18T04:15:31;16.60;99.90
48728;DHT22;34527;45.618;5.130;2022-10-18T04:17:57;16.50;99.90
48728;DHT22;34527;45.618;5.130;2022-10-18T04:20:24;16.40;99.90
48728;DHT22;34527;45.618;5.130;2022-10-18T04:22:50;16.40;99.90
48728;DHT22;34527;45.618;5.130;2022-10-18T04:25:16;16.30;99.90
48728;DHT22;34527;45.618;5.130;2022-10-18T04:27:43;16.30;99.90
48728;DHT22;34527;45.618;5.130;2022-10-18T04:30:09;16.30;99.90
48728;DHT22;34527;45.618;5.130;2022-10-18T04:32:35;16.20;99.90
48728;DHT22;34527;45.618;5.130;2022-10-18T04:35:02;16.10;99.90
48728;DHT22;34527;45.618;5.130;2022-10-18T04:37:28;15.90;99.90
48728;DHT22;34527;45.618;5.130;2022-10-18T04:39:54;15.90;99.90
48728;DHT22;34527;45.618;5.130;2022-10-18T04:42:20;15.90;99.90
48728;DHT22;34527;45.618;5.130;2022-10-18T04:44:46;15.90;99.90
48728;DHT22;34527;45.618;5.130;2022-10-18T04:47:12;15.90;99.90
48728;DHT22;34527;45.618;5.130;2022-10-18T04:49:38;15.90;99.90
48728;DHT22;34527;45.618;5.130;2022-10-18T04:52:04;15.80;99.90
48728;DHT22;34527;45.618;5.130;2022-10-18T04:54:29;15.80;99.90
48728;DHT22;34527;45.618;5.130;2022-10-18T04:56:55;15.80;99.90
48728;DHT22;34527;45.618;5.130;2022-10-18T04:59:21;15.80;99.90
48728;DHT22;34527;45.618;5.130;2022-10-18T05:01:47;15.70;99.90
48728;DHT22;34527;45.618;5.130;2022-10-18T05:04:13;15.60;99.90
48728;DHT22;34527;45.618;5.130;2022-10-18T05:06:39;15.60;99.90
48728;DHT22;34527;45.618;5.130;2022-10-18T05:09:05;15.60;99.90
48728;DHT22;34527;45.618;5.130;2022-10-18T05:11:30;15.60;99.90
48728;DHT22;34527;45.618;5.130;2022-10-18T05:13:56;15.60;99.90
48728;DHT22;34527;45.618;5.130;2022-10-18T05:16:22;15.60;99.90
48728;DHT22;34527;45.618;5.130;2022-10-18T05:18:48;15.60;99.90
48728;DHT22;34527;45.618;5.130;2022-10-18T05:21:14;15.50;99.90
48728;DHT22;34527;45.618;5.130;2022-10-18T05:23:40;15.40;99.90
48728;DHT22;34527;45.618;5.130;2022-10-18T05:26:07;15.40;99.90
48728;DHT22;34527;45.618;5.130;2022-10-18T05:28:33;15.40;99.90
48728;DHT22;34527;45.618;5.130;2022-10-18T05:31:07;15.40;99.90
48728;DHT22;34527;45.618;5.130;2022-10-18T05:33:34;15.40;99.90
48728;DHT22;34527;45.618;5.130;2022-10-18T05:35:59;15.40;99.90
48728;DHT22;34527;45.618;5.130;2022-10-18T05:38:25;15.30;99.90
48728;DHT22;34527;45.618;5.130;2022-10-18T05:40:51;15.40;99.90
48728;DHT22;34527;45.618;5.130;2022-10-18T05:43:17;15.40;99.90
48728;DHT22;34527;45.618;5.130;2022-10-18T05:45:50;15.40;99.90
48728;DHT22;34527;45.618;5.130;2022-10-18T05:48:16;15.40;99.90
48728;DHT22;34527;45.618;5.130;2022-10-18T05:50:43;15.30;99.90
48728;DHT22;34527;45.618;5.130;2022-10-18T05:53:09;15.40;99.90
48728;DHT22;34527;45.618;5.130;2022-10-18T05:55:35;15.30;99.90
48728;DHT22;34527;45.618;5.130;2022-10-18T05:58:01;15.20;99.90
48728;DHT22;34527;45.618;5.130;2022-10-18T06:00:27;15.20;99.90
48728;DHT22;34527;45.618;5.130;2022-10-18T06:02:53;15.20;99.90
48728;DHT22;34527;45.618;5.130;2022-10-18T06:05:19;15.30;99.90
48728;DHT22;34527;45.618;5.130;2022-10-18T06:07:45;15.20;99.90
48728;DHT22;34527;45.618;5.130;2022-10-18T06:10:11;15.20;99.90
48728;DHT22;34527;45.618;5.130;2022-10-18T06:12:37;15.10;99.90
48728;DHT22;34527;45.618;5.130;2022-10-18T06:15:03;15.00;99.90
48728;DHT22;34527;45.618;5.130;2022-10-18T06:17:29;15.10;99.90
48728;DHT22;34527;45.618;5.130;2022-10-18T06:19:55;15.20;99.90
48728;DHT22;34527;45.618;5.130;2022-10-18T06:22:21;15.20;99.90
48728;DHT22;34527;45.618;5.130;2022-10-18T06:24:47;15.30;99.90
48728;DHT22;34527;45.618;5.130;2022-10-18T06:27:13;15.30;99.90
48728;DHT22;34527;45.618;5.130;2022-10-18T06:29:39;15.30;99.90
48728;DHT22;34527;45.618;5.130;2022-10-18T06:32:06;15.40;99.90
48728;DHT22;34527;45.618;5.130;2022-10-18T06:34:32;15.40;99.90
48728;DHT22;34527;45.618;5.130;2022-10-18T06:36:58;15.40;99.90
48728;DHT22;34527;45.618;5.130;2022-10-18T06:39:24;15.40;99.90
48728;DHT22;34527;45.618;5.130;2022-10-18T06:41:50;15.50;99.90
48728;DHT22;34527;45.618;5.130;2022-10-18T06:44:16;15.50;99.90
48728;DHT22;34527;45.618;5.130;2022-10-18T06:46:44;15.50;99.90
48728;DHT22;34527;45.618;5.130;2022-10-18T06:49:11;15.50;99.90
48728;DHT22;34527;45.618;5.130;2022-10-18T06:51:39;15.50;99.90
48728;DHT22;34527;45.618;5.130;2022-10-18T06:54:05;15.50;99.90
48728;DHT22;34527;45.618;5.130;2022-10-18T06:56:32;15.60;99.90
48728;DHT22;34527;45.618;5.130;2022-10-18T06:58:58;15.60;99.90
48728;DHT22;34527;45.618;5.130;2022-10-18T07:01:23;15.70;99.90
48728;DHT22;34527;45.618;5.130;2022-10-18T07:03:51;15.80;99.90
48728;DHT22;34527;45.618;5.130;2022-10-18T07:06:18;15.90;99.90
48728;DHT22;34527;45.618;5.130;2022-10-18T07:08:45;15.90;99.90
48728;DHT22;34527;45.618;5.130;2022-10-18T07:11:19;16.00;99.90
48728;DHT22;34527;45.618;5.130;2022-10-18T07:13:45;16.10;99.90
48728;DHT22;34527;45.618;5.130;2022-10-18T07:16:14;16.10;99.90
48728;DHT22;34527;45.618;5.130;2022-10-18T07:18:44;16.10;99.90
48728;DHT22;34527;45.618;5.130;2022-10-18T07:21:12;16.20;99.90
48728;DHT22;34527;45.618;5.130;2022-10-18T07:23:40;16.20;99.90
48728;DHT22;34527;45.618;5.130;2022-10-18T07:26:25;16.30;99.90
48728;DHT22;34527;45.618;5.130;2022-10-18T07:28:52;16.30;99.90
48728;DHT22;34527;45.618;5.130;2022-10-18T07:31:22;16.40;99.90
48728;DHT22;34527;45.618;5.130;2022-10-18T07:33:49;16.50;99.90
48728;DHT22;34527;45.618;5.130;2022-10-18T07:36:16;16.60;99.90
48728;DHT22;34527;45.618;5.130;2022-10-18T07:38:42;16.70;99.90
48728;DHT22;34527;45.618;5.130;2022-10-18T07:41:10;16.70;99.90
48728;DHT22;34527;45.618;5.130;2022-10-18T07:43:39;16.80;99.90
48728;DHT22;34527;45.618;5.130;2022-10-18T07:46:05;17.00;99.90
48728;DHT22;34527;45.618;5.130;2022-10-18T07:48:31;17.00;99.90
48728;DHT22;34527;45.618;5.130;2022-10-18T07:51:01;17.00;99.90
48728;DHT22;34527;45.618;5.130;2022-10-18T07:53:28;17.10;99.90
48728;DHT22;34527;45.618;5.130;2022-10-18T07:56:09;17.20;99.90
48728;DHT22;34527;45.618;5.130;2022-10-18T07:58:41;17.30;99.90
48728;DHT22;34527;45.618;5.130;2022-10-18T08:01:07;17.40;99.90
48728;DHT22;34527;45.618;5.130;2022-10-18T08:03:35;17.40;99.90
48728;DHT22;34527;45.618;5.130;2022-10-18T08:06:02;17.50;99.90
48728;DHT22;34527;45.618;5.130;2022-10-18T08:08:28;17.60;99.90
48728;DHT22;34527;45.618;5.130;2022-10-18T08:11:00;17.80;99.90
48728;DHT22;34527;45.618;5.130;2022-10-18T08:13:29;17.90;99.90
48728;DHT22;34527;45.618;5.130;2022-10-18T08:15:59;18.00;99.90
48728;DHT22;34527;45.618;5.130;2022-10-18T08:18:26;18.10;99.90
48728;DHT22;34527;45.618;5.130;2022-10-18T08:20:52;18.20;99.90
48728;DHT22;34527;45.618;5.130;2022-10-18T08:23:18;18.30;99.90
48728;DHT22;34527;45.618;5.130;2022-10-18T08:25:45;18.40;99.90
48728;DHT22;34527;45.618;5.130;2022-10-18T08:28:11;18.50;99.90
48728;DHT22;34527;45.618;5.130;2022-10-18T08:30:39;18.50;99.90
48728;DHT22;34527;45.618;5.130;2022-10-18T08:33:05;18.60;99.90
48728;DHT22;34527;45.618;5.130;2022-10-18T08:35:31;18.70;99.90
48728;DHT22;34527;45.618;5.130;2022-10-18T08:37:57;18.80;99.90
48728;DHT22;34527;45.618;5.130;2022-10-18T08:40:24;18.90;99.90
48728;DHT22;34527;45.618;5.130;2022-10-18T08:46:00;19.20;99.90
48728;DHT22;34527;45.618;5.130;2022-10-18T08:48:47;19.40;99.90
48728;DHT22;34527;45.618;5.130;2022-10-18T08:51:41;19.50;99.90
48728;DHT22;34527;45.618;5.130;2022-10-18T08:54:21;19.60;99.90
48728;DHT22;34527;45.618;5.130;2022-10-18T08:57:00;19.70;99.90
48728;DHT22;34527;45.618;5.130;2022-10-18T08:59:46;19.90;99.90
48728;DHT22;34527;45.618;5.130;2022-10-18T09:04:48;20.20;99.90
48728;DHT22;34527;45.618;5.130;2022-10-18T09:10:13;20.30;99.90
48728;DHT22;34527;45.618;5.130;2022-10-18T09:23:19;20.70;99.90
48728;DHT22;34527;45.618;5.130;2022-10-18T09:25:51;20.80;99.90
48728;DHT22;34527;45.618;5.130;2022-10-18T09:36:55;21.10;99.90
48728;DHT22;34527;45.618;5.130;2022-10-18T09:39:24;21.10;99.90
48728;DHT22;34527;45.618;5.130;2022-10-18T09:45:03;21.20;99.90
48728;DHT22;34527;45.618;5.130;2022-10-18T09:47:46;21.30;99.90
48728;DHT22;34527;45.618;5.130;2022-10-18T09:52:50;21.50;99.90
48728;DHT22;34527;45.618;5.130;2022-10-18T09:55:29;21.60;99.90
48728;DHT22;34527;45.618;5.130;2022-10-18T09:57:59;21.60;99.90
48728;DHT22;34527;45.618;5.130;2022-10-18T10:00:53;21.70;99.90
48728;DHT22;34527;45.618;5.130;2022-10-18T10:03:21;21.70;99.90
48728;DHT22;34527;45.618;5.130;2022-10-18T10:06:13;21.80;99.90
48728;DHT22;34527;45.618;5.130;2022-10-18T10:08:47;21.80;99.90
48728;DHT22;34527;45.618;5.130;2022-10-18T10:11:26;21.90;99.90
48728;DHT22;34527;45.618;5.130;2022-10-18T10:14:11;21.90;99.90
48728;DHT22;34527;45.618;5.130;2022-10-18T10:16:52;21.90;99.90
48728;DHT22;34527;45.618;5.130;2022-10-18T10:21:56;22.10;99.90
48728;DHT22;34527;45.618;5.130;2022-10-18T10:24:53;22.10;99.90
48728;DHT22;34527;45.618;5.130;2022-10-18T10:27:20;22.10;99.90
48728;DHT22;34527;45.618;5.130;2022-10-18T10:29:51;22.10;99.90
48728;DHT22;34527;45.618;5.130;2022-10-18T10:32:22;22.10;99.90
48728;DHT22;34527;45.618;5.130;2022-10-18T10:34:49;22.20;99.90
48728;DHT22;34527;45.618;5.130;2022-10-18T10:42:37;22.30;99.90
48728;DHT22;34527;45.618;5.130;2022-10-18T10:45:13;22.30;99.90
48728;DHT22;34527;45.618;5.130;2022-10-18T10:47:39;22.30;99.90
48728;DHT22;34527;45.618;5.130;2022-10-18T10:50:11;22.40;99.90
48728;DHT22;34527;45.618;5.130;2022-10-18T10:52:39;22.40;99.90
48728;DHT22;34527;45.618;5.130;2022-10-18T10:55:18;22.40;99.90
48728;DHT22;34527;45.618;5.130;2022-10-18T10:57:47;22.50;99.90
48728;DHT22;34527;45.618;5.130;2022-10-18T11:03:16;22.70;99.90
48728;DHT22;34527;45.618;5.130;2022-10-18T11:05:51;22.70;99.90
48728;DHT22;34527;45.618;5.130;2022-10-18T11:08:24;22.70;99.90
48728;DHT22;34527;45.618;5.130;2022-10-18T11:13:49;22.80;99.90
48728;DHT22;34527;45.618;5.130;2022-10-18T11:16:31;22.80;99.90
48728;DHT22;34527;45.618;5.130;2022-10-18T11:19:02;22.80;99.90
48728;DHT22;34527;45.618;5.130;2022-10-18T11:21:34;22.80;99.90
48728;DHT22;34527;45.618;5.130;2022-10-18T11:24:02;23.00;99.90
48728;DHT22;34527;45.618;5.130;2022-10-18T11:26:36;23.00;99.90
48728;DHT22;34527;45.618;5.130;2022-10-18T11:32:37;23.20;99.90
48728;DHT22;34527;45.618;5.130;2022-10-18T11:35:33;23.30;99.90
48728;DHT22;34527;45.618;5.130;2022-10-18T11:38:12;23.20;99.90
48728;DHT22;34527;45.618;5.130;2022-10-18T11:46:51;23.20;99.90
48728;DHT22;34527;45.618;5.130;2022-10-18T11:55:17;23.30;99.90
48728;DHT22;34527;45.618;5.130;2022-10-18T11:57:54;23.40;99.90
48728;DHT22;34527;45.618;5.130;2022-10-18T12:00:26;23.50;99.90
48728;DHT22;34527;45.618;5.130;2022-10-18T12:02:58;23.50;99.90
48728;DHT22;34527;45.618;5.130;2022-10-18T12:05:26;23.60;99.90
48728;DHT22;34527;45.618;5.130;2022-10-18T12:10:35;23.60;99.90
48728;DHT22;34527;45.618;5.130;2022-10-18T12:13:05;23.60;99.90
48728;DHT22;34527;45.618;5.130;2022-10-18T12:15:35;23.70;99.90
48728;DHT22;34527;45.618;5.130;2022-10-18T12:18:16;23.80;99.90
48728;DHT22;34527;45.618;5.130;2022-10-18T12:20:50;23.80;99.90
48728;DHT22;34527;45.618;5.130;2022-10-18T12:23:47;23.60;99.90
48728;DHT22;34527;45.618;5.130;2022-10-18T12:26:14;23.70;99.90
48728;DHT22;34527;45.618;5.130;2022-10-18T12:29:48;23.90;99.90
48728;DHT22;34527;45.618;5.130;2022-10-18T12:32:10;23.80;99.90
48728;DHT22;34527;45.618;5.130;2022-10-18T12:34:47;23.70;99.90
48728;DHT22;34527;45.618;5.130;2022-10-18T12:42:51;23.90;99.90
48728;DHT22;34527;45.618;5.130;2022-10-18T12:45:25;23.90;99.90
48728;DHT22;34527;45.618;5.130;2022-10-18T12:47:51;23.80;99.90
48728;DHT22;34527;45.618;5.130;2022-10-18T12:50:40;23.80;99.90
48728;DHT22;34527;45.618;5.130;2022-10-18T12:53:17;23.80;99.90
48728;DHT22;34527;45.618;5.130;2022-10-18T12:55:46;23.90;99.90
48728;DHT22;34527;45.618;5.130;2022-10-18T13:14:06;24.00;99.90
48728;DHT22;34527;45.618;5.130;2022-10-18T13:16:37;24.00;99.90
48728;DHT22;34527;45.618;5.130;2022-10-18T13:21:54;24.00;99.90
48728;DHT22;34527;45.618;5.130;2022-10-18T13:24:32;24.00;99.90
48728;DHT22;34527;45.618;5.130;2022-10-18T13:30:30;24.00;99.90
48728;DHT22;34527;45.618;5.130;2022-10-18T13:35:41;23.90;99.90
48728;DHT22;34527;45.618;5.130;2022-10-18T13:38:37;23.90;99.90
48728;DHT22;34527;45.618;5.130;2022-10-18T13:41:10;24.00;99.90
48728;DHT22;34527;45.618;5.130;2022-10-18T13:46:19;23.90;99.90
48728;DHT22;34527;45.618;5.130;2022-10-18T13:48:52;24.00;99.90
48728;DHT22;34527;45.618;5.130;2022-10-18T13:54:18;24.00;99.90
48728;DHT22;34527;45.618;5.130;2022-10-18T14:02:38;23.90;99.90
48728;DHT22;34527;45.618;5.130;2022-10-18T14:08:02;24.10;99.90
48728;DHT22;34527;45.618;5.130;2022-10-18T14:13:54;24.00;99.90
48728;DHT22;34527;45.618;5.130;2022-10-18T14:16:38;23.90;99.90
48728;DHT22;34527;45.618;5.130;2022-10-18T14:21:55;24.00;99.90
48728;DHT22;34527;45.618;5.130;2022-10-18T14:24:25;23.90;99.90
48728;DHT22;34527;45.618;5.130;2022-10-18T14:30:16;24.00;99.90
48728;DHT22;34527;45.618;5.130;2022-10-18T14:32:48;23.90;99.90
48728;DHT22;34527;45.618;5.130;2022-10-18T14:35:23;23.90;99.90
48728;DHT22;34527;45.618;5.130;2022-10-18T14:37:52;24.00;99.90
48728;DHT22;34527;45.618;5.130;2022-10-18T14:42:55;23.90;99.90
48728;DHT22;34527;45.618;5.130;2022-10-18T14:45:22;23.90;99.90
48728;DHT22;34527;45.618;5.130;2022-10-18T14:47:48;23.90;99.90
48728;DHT22;34527;45.618;5.130;2022-10-18T14:50:22;23.90;99.90
48728;DHT22;34527;45.618;5.130;2022-10-18T14:52:49;23.80;99.90
48728;DHT22;34527;45.618;5.130;2022-10-18T14:55:26;23.80;99.90
48728;DHT22;34527;45.618;5.130;2022-10-18T14:57:53;23.80;99.90
48728;DHT22;34527;45.618;5.130;2022-10-18T15:00:25;23.80;99.90
48728;DHT22;34527;45.618;5.130;2022-10-18T15:02:54;23.80;99.90
48728;DHT22;34527;45.618;5.130;2022-10-18T15:05:22;23.80;99.90
48728;DHT22;34527;45.618;5.130;2022-10-18T15:07:50;23.70;99.90
48728;DHT22;34527;45.618;5.130;2022-10-18T15:10:29;23.60;99.90
48728;DHT22;34527;45.618;5.130;2022-10-18T15:13:01;23.60;99.90
48728;DHT22;34527;45.618;5.130;2022-10-18T15:15:30;23.50;99.90
48728;DHT22;34527;45.618;5.130;2022-10-18T15:17:57;23.50;99.90
48728;DHT22;34527;45.618;5.130;2022-10-18T15:20:32;23.50;99.90
48728;DHT22;34527;45.618;5.130;2022-10-18T15:23:18;23.50;99.90
48728;DHT22;34527;45.618;5.130;2022-10-18T15:25:45;23.50;99.90
48728;DHT22;34527;45.618;5.130;2022-10-18T15:28:27;23.50;99.90
48728;DHT22;34527;45.618;5.130;2022-10-18T15:30:53;23.40;99.90
48728;DHT22;34527;45.618;5.130;2022-10-18T15:33:24;23.30;99.90
48728;DHT22;34527;45.618;5.130;2022-10-18T15:35:51;23.30;99.90
48728;DHT22;34527;45.618;5.130;2022-10-18T15:38:28;23.20;99.90
48728;DHT22;34527;45.618;5.130;2022-10-18T15:40:57;23.10;99.90
48728;DHT22;34527;45.618;5.130;2022-10-18T15:46:02;23.10;99.90
48728;DHT22;34527;45.618;5.130;2022-10-18T15:48:39;23.00;99.90
48728;DHT22;34527;45.618;5.130;2022-10-18T15:53:53;22.90;99.90
48728;DHT22;34527;45.618;5.130;2022-10-18T15:56:26;22.90;99.90
48728;DHT22;34527;45.618;5.130;2022-10-18T15:58:54;22.70;99.90
48728;DHT22;34527;45.618;5.130;2022-10-18T16:01:41;22.70;99.90
48728;DHT22;34527;45.618;5.130;2022-10-18T16:04:33;22.60;99.90
48728;DHT22;34527;45.618;5.130;2022-10-18T16:06:59;22.50;99.90
48728;DHT22;34527;45.618;5.130;2022-10-18T16:09:27;22.20;99.90
48728;DHT22;34527;45.618;5.130;2022-10-18T16:11:53;22.10;99.90
48728;DHT22;34527;45.618;5.130;2022-10-18T16:14:20;21.90;99.90
48728;DHT22;34527;45.618;5.130;2022-10-18T16:16:51;21.80;99.90
48728;DHT22;34527;45.618;5.130;2022-10-18T16:19:18;21.60;99.90
48728;DHT22;34527;45.618;5.130;2022-10-18T16:21:45;21.60;99.90
48728;DHT22;34527;45.618;5.130;2022-10-18T16:24:11;21.40;99.90
48728;DHT22;34527;45.618;5.130;2022-10-18T16:26:37;21.30;99.90
48728;DHT22;34527;45.618;5.130;2022-10-18T16:29:04;21.20;99.90
48728;DHT22;34527;45.618;5.130;2022-10-18T16:31:32;21.10;99.90
48728;DHT22;34527;45.618;5.130;2022-10-18T16:34:00;20.90;99.90
48728;DHT22;34527;45.618;5.130;2022-10-18T16:36:31;20.80;99.90
48728;DHT22;34527;45.618;5.130;2022-10-18T16:38:59;20.60;99.90
48728;DHT22;34527;45.618;5.130;2022-10-18T16:41:26;20.40;99.90
48728;DHT22;34527;45.618;5.130;2022-10-18T16:43:52;20.30;99.90
48728;DHT22;34527;45.618;5.130;2022-10-18T16:46:22;20.00;99.90
48728;DHT22;34527;45.618;5.130;2022-10-18T16:48:49;20.00;99.90
48728;DHT22;34527;45.618;5.130;2022-10-18T16:51:16;19.80;99.90
48728;DHT22;34527;45.618;5.130;2022-10-18T16:53:42;19.70;99.90
48728;DHT22;34527;45.618;5.130;2022-10-18T16:56:17;19.60;99.90
48728;DHT22;34527;45.618;5.130;2022-10-18T16:58:44;19.60;99.90
48728;DHT22;34527;45.618;5.130;2022-10-18T17:01:11;19.50;99.90
48728;DHT22;34527;45.618;5.130;2022-10-18T17:03:38;19.40;99.90
48728;DHT22;34527;45.618;5.130;2022-10-18T17:06:04;19.30;99.90
48728;DHT22;34527;45.618;5.130;2022-10-18T17:08:30;19.10;99.90
48728;DHT22;34527;45.618;5.130;2022-10-18T17:10:58;18.90;99.90
48728;DHT22;34527;45.618;5.130;2022-10-18T17:13:25;18.80;99.90
48728;DHT22;34527;45.618;5.130;2022-10-18T17:15:52;18.80;99.90
48728;DHT22;34527;45.618;5.130;2022-10-18T17:18:20;18.70;99.90
48728;DHT22;34527;45.618;5.130;2022-10-18T17:20:47;18.60;99.90
48728;DHT22;34527;45.618;5.130;2022-10-18T17:23:14;18.40;99.90
48728;DHT22;34527;45.618;5.130;2022-10-18T17:25:41;18.30;99.90
48728;DHT22;34527;45.618;5.130;2022-10-18T17:28:16;18.20;99.90
48728;DHT22;34527;45.618;5.130;2022-10-18T17:30:42;18.20;99.90
48728;DHT22;34527;45.618;5.130;2022-10-18T17:33:09;18.00;99.90
48728;DHT22;34527;45.618;5.130;2022-10-18T17:35:35;17.90;99.90
48728;DHT22;34527;45.618;5.130;2022-10-18T17:38:01;17.80;99.90
48728;DHT22;34527;45.618;5.130;2022-10-18T17:40:29;17.70;99.90
48728;DHT22;34527;45.618;5.130;2022-10-18T17:42:55;17.70;99.90
48728;DHT22;34527;45.618;5.130;2022-10-18T17:45:21;17.80;99.90
48728;DHT22;34527;45.618;5.130;2022-10-18T17:47:47;17.80;99.90
48728;DHT22;34527;45.618;5.130;2022-10-18T17:50:14;17.80;99.90
48728;DHT22;34527;45.618;5.130;2022-10-18T17:52:45;17.80;99.90
48728;DHT22;34527;45.618;5.130;2022-10-18T17:55:13;17.90;99.90
48728;DHT22;34527;45.618;5.130;2022-10-18T17:57:40;17.80;99.90
48728;DHT22;34527;45.618;5.130;2022-10-18T18:00:08;17.90;99.90
48728;DHT22;34527;45.618;5.130;2022-10-18T18:02:35;17.80;99.90
48728;DHT22;34527;45.618;5.130;2022-10-18T18:05:01;17.70;99.90
48728;DHT22;34527;45.618;5.130;2022-10-18T18:07:27;17.70;99.90
48728;DHT22;34527;45.618;5.130;2022-10-18T18:09:53;17.60;99.90
48728;DHT22;34527;45.618;5.130;2022-10-18T18:12:19;17.60;99.90